Time;durP1;ratioP1;P1;durP2;ratioP2;P2;SDS_P1;SDS_P2;PMS_P1;PMS_P2;Temp;Humidity;BMP_temperature;BMP_pressure;BME280_temperature;BME280_humidity;BME280_pressure;Samples;Min_cycle;Max_cycle;Signal;HPM_P1;HPM_P2
2023/11/06 00:00:57;;;;;;;19.55;11.00;;;7.40;99.90;;;;;;4984043;28;20054;-76
2023/11/06 00:03:26;;;;;;;20.83;11.38;;;7.40;99.90;;;;;;5016234;28;20060;-76
2023/11/06 00:05:54;;;;;;;21.27;10.57;;;7.40;99.90;;;;;;4994443;28;20831;-76
2023/11/06 00:08:25;;;;;;;20.02;12.20;;;7.40;99.90;;;;;;5008285;28;20041;-76
2023/11/06 00:10:54;;;;;;;22.08;12.18;;;7.30;99.90;;;;;;4993601;28;20060;-76
2023/11/06 00:13:22;;;;;;;19.67;10.60;;;7.30;99.90;;;;;;4994330;28;20045;-76
2023/11/06 00:15:52;;;;;;;22.60;12.23;;;7.30;99.90;;;;;;4994717;28;20910;-76
2023/11/06 00:18:21;;;;;;;21.80;12.70;;;7.30;99.90;;;;;;5002335;28;20045;-76
2023/11/06 00:20:49;;;;;;;28.48;13.68;;;7.20;99.90;;;;;;5007906;28;20045;-76
2023/11/06 00:23:19;;;;;;;30.55;15.77;;;7.30;99.90;;;;;;4990833;28;20060;-76
2023/11/06 00:25:48;;;;;;;28.42;14.70;;;7.30;99.90;;;;;;5006546;28;20053;-76
2023/11/06 00:28:16;;;;;;;30.88;13.85;;;7.40;99.90;;;;;;5013363;28;20109;-76
2023/11/06 00:30:45;;;;;;;31.02;16.40;;;7.40;99.90;;;;;;4995365;28;20080;-76
2023/11/06 00:33:15;;;;;;;31.88;16.55;;;7.40;99.90;;;;;;4996121;28;22738;-76
2023/11/06 00:35:43;;;;;;;30.75;17.50;;;7.40;99.90;;;;;;4997438;28;20084;-76
2023/11/06 00:38:12;;;;;;;34.15;17.45;;;7.50;99.90;;;;;;4996294;28;20058;-76
2023/11/06 00:40:41;;;;;;;28.77;15.68;;;7.50;99.90;;;;;;4995828;28;20118;-76
2023/11/06 00:43:09;;;;;;;28.20;15.68;;;7.50;99.90;;;;;;4985251;28;20057;-76
2023/11/06 00:45:38;;;;;;;37.40;17.08;;;7.50;99.90;;;;;;4999251;28;20100;-76
2023/11/06 00:48:06;;;;;;;26.90;16.30;;;7.40;99.90;;;;;;5021086;28;20602;-76
2023/11/06 00:50:36;;;;;;;31.33;16.95;;;7.50;99.90;;;;;;4994339;28;20053;-76
2023/11/06 00:53:07;;;;;;;30.50;17.23;;;7.50;99.90;;;;;;5000493;28;20143;-75
2023/11/06 00:55:39;;;;;;;29.35;16.38;;;7.50;99.90;;;;;;4995596;28;22520;-75
2023/11/06 00:58:07;;;;;;;30.23;16.33;;;7.50;99.90;;;;;;4986543;28;20053;-75
2023/11/06 01:00:37;;;;;;;31.48;17.08;;;7.50;99.90;;;;;;5005082;28;20400;-75
2023/11/06 01:03:05;;;;;;;29.77;15.43;;;7.60;99.90;;;;;;5011661;28;20053;-75
2023/11/06 01:05:35;;;;;;;28.65;15.90;;;7.60;99.90;;;;;;4984500;28;20130;-76
2023/11/06 01:08:05;;;;;;;28.13;16.13;;;7.60;99.90;;;;;;5006894;28;20064;-76
2023/11/06 01:10:34;;;;;;;29.85;16.65;;;7.60;99.90;;;;;;4997962;28;20056;-75
2023/11/06 01:13:03;;;;;;;29.13;16.23;;;7.60;99.90;;;;;;5002525;28;20057;-75
2023/11/06 01:15:32;;;;;;;30.23;15.98;;;7.70;99.90;;;;;;4994510;28;20088;-76
2023/11/06 01:18:01;;;;;;;28.23;16.02;;;7.70;99.90;;;;;;5004398;28;20729;-76
2023/11/06 01:20:29;;;;;;;29.67;16.98;;;7.70;99.90;;;;;;5008744;28;20046;-75
2023/11/06 01:22:59;;;;;;;30.63;16.27;;;7.70;99.90;;;;;;4993326;28;20064;-75
2023/11/06 01:25:28;;;;;;;26.33;14.45;;;7.70;99.90;;;;;;4994564;28;20517;-75
2023/11/06 01:27:56;;;;;;;29.17;15.38;;;7.70;99.90;;;;;;5003631;28;20590;-75
2023/11/06 01:30:25;;;;;;;25.95;14.73;;;7.70;99.90;;;;;;5005031;28;20055;-75
2023/11/06 01:32:53;;;;;;;31.85;17.80;;;7.80;99.90;;;;;;5010698;28;20171;-75
2023/11/06 01:35:25;;;;;;;28.63;16.08;;;7.80;99.90;;;;;;5010882;28;20053;-75
2023/11/06 01:37:53;;;;;;;27.73;15.55;;;7.80;99.90;;;;;;5033715;28;20178;-76
2023/11/06 01:40:23;;;;;;;25.23;14.63;;;7.90;99.90;;;;;;4997453;28;22490;-74
2023/11/06 01:42:52;;;;;;;29.05;15.63;;;7.80;99.90;;;;;;4997632;28;20061;-75
2023/11/06 01:45:20;;;;;;;24.35;13.98;;;7.90;99.90;;;;;;4996214;28;20072;-75
2023/11/06 01:47:50;;;;;;;28.42;15.07;;;7.90;99.90;;;;;;4998665;28;20050;-76
2023/11/06 01:50:21;;;;;;;24.77;13.50;;;7.90;99.90;;;;;;4997055;28;20131;-75
2023/11/06 01:52:51;;;;;;;29.35;14.57;;;7.90;99.90;;;;;;5001890;28;20064;-75
2023/11/06 01:55:19;;;;;;;24.85;13.52;;;7.90;99.90;;;;;;5011878;28;20593;-75
2023/11/06 01:57:49;;;;;;;25.05;14.57;;;7.90;99.90;;;;;;4996363;28;20041;-75
2023/11/06 02:00:19;;;;;;;22.42;13.00;;;7.90;99.90;;;;;;5005878;28;20045;-75
2023/11/06 02:02:49;;;;;;;25.52;12.60;;;7.90;99.90;;;;;;4996046;28;20144;-75
2023/11/06 02:05:18;;;;;;;21.88;12.10;;;7.90;99.90;;;;;;4995239;28;20049;-75
2023/11/06 02:07:47;;;;;;;24.20;12.68;;;7.90;99.90;;;;;;5015815;28;20049;-75
2023/11/06 02:10:17;;;;;;;22.50;12.15;;;7.80;99.90;;;;;;4996300;28;20064;-75
2023/11/06 02:12:46;;;;;;;22.90;11.15;;;7.80;99.90;;;;;;4993367;28;20053;-77
2023/11/06 02:15:16;;;;;;;21.23;11.20;;;7.80;99.90;;;;;;4995239;28;20161;-75
2023/11/06 02:17:45;;;;;;;21.67;11.20;;;7.80;99.90;;;;;;4995550;28;20058;-75
2023/11/06 02:20:14;;;;;;;21.92;10.50;;;7.80;99.90;;;;;;5005705;28;20053;-76
2023/11/06 02:22:44;;;;;;;16.30;9.35;;;7.70;99.90;;;;;;4997110;28;20139;-76
2023/11/06 02:25:14;;;;;;;16.05;8.93;;;7.70;99.90;;;;;;5025476;28;20144;-75
2023/11/06 02:27:42;;;;;;;14.50;8.75;;;7.70;99.90;;;;;;4992235;28;22146;-75
2023/11/06 02:30:12;;;;;;;14.85;8.13;;;7.60;99.90;;;;;;5012354;28;20943;-75
2023/11/06 02:32:40;;;;;;;11.70;6.60;;;7.60;99.90;;;;;;4995234;28;20053;-75
2023/11/06 02:35:09;;;;;;;11.80;6.93;;;7.60;99.90;;;;;;5013264;28;22564;-76
2023/11/06 02:37:38;;;;;;;12.82;6.90;;;7.70;99.90;;;;;;4993503;28;21007;-75
2023/11/06 02:40:07;;;;;;;11.93;6.45;;;7.70;99.90;;;;;;4995419;28;20292;-75
2023/11/06 02:42:37;;;;;;;11.45;5.72;;;7.70;99.90;;;;;;4996314;28;20049;-76
2023/11/06 02:45:07;;;;;;;10.68;5.60;;;7.80;99.90;;;;;;5000069;28;20080;-76
2023/11/06 02:47:35;;;;;;;10.85;5.43;;;7.70;99.90;;;;;;4986690;28;20197;-75
2023/11/06 02:50:06;;;;;;;9.93;5.00;;;7.80;99.90;;;;;;4985955;28;20416;-75
2023/11/06 02:52:34;;;;;;;10.60;5.40;;;7.80;99.90;;;;;;5019616;28;20046;-75
2023/11/06 02:55:04;;;;;;;9.95;4.80;;;7.80;99.90;;;;;;4990252;28;20213;-75
2023/11/06 02:57:33;;;;;;;10.60;4.93;;;7.90;99.90;;;;;;4994299;28;20053;-76
2023/11/06 03:00:06;;;;;;;12.05;5.32;;;7.90;99.90;;;;;;4990206;28;20060;-75
2023/11/06 03:02:36;;;;;;;7.50;3.92;;;7.80;99.90;;;;;;5007053;28;20412;-75
2023/11/06 03:05:06;;;;;;;8.43;4.05;;;7.90;99.90;;;;;;5010232;28;20049;-75
2023/11/06 03:07:35;;;;;;;8.27;4.30;;;7.80;99.90;;;;;;5026040;28;20084;-75
2023/11/06 03:10:03;;;;;;;8.30;4.72;;;7.90;99.90;;;;;;5003522;28;20052;-76
2023/11/06 03:12:32;;;;;;;8.43;4.30;;;7.80;99.90;;;;;;5011918;28;20136;-76
2023/11/06 03:15:03;;;;;;;8.45;4.43;;;7.90;99.90;;;;;;4991330;28;20049;-76
2023/11/06 03:17:31;;;;;;;14.70;5.07;;;7.90;99.90;;;;;;4993223;28;20065;-76
2023/11/06 03:20:00;;;;;;;12.10;5.18;;;8.00;99.90;;;;;;5012264;28;20052;-76
2023/11/06 03:22:28;;;;;;;11.35;5.10;;;8.00;99.90;;;;;;5012906;28;20072;-76
2023/11/06 03:24:57;;;;;;;8.05;3.90;;;8.00;99.90;;;;;;5010819;28;20091;-77
2023/11/06 03:27:25;;;;;;;7.80;3.72;;;8.00;99.90;;;;;;5012472;28;20816;-76
2023/11/06 03:29:53;;;;;;;6.55;3.70;;;8.00;99.90;;;;;;4993944;28;20054;-76
2023/11/06 03:32:23;;;;;;;8.27;3.35;;;8.00;99.90;;;;;;4997659;28;20053;-76
2023/11/06 03:34:52;;;;;;;10.18;3.55;;;8.00;99.90;;;;;;5030743;28;20064;-76
2023/11/06 03:37:20;;;;;;;8.77;3.63;;;7.90;99.90;;;;;;4995626;28;20132;-76
2023/11/06 03:39:49;;;;;;;7.28;3.38;;;8.00;99.90;;;;;;4994588;28;23079;-76
2023/11/06 03:42:17;;;;;;;5.65;3.33;;;8.00;99.90;;;;;;5009439;28;20049;-76
2023/11/06 03:44:45;;;;;;;7.43;2.92;;;8.00;99.90;;;;;;5010123;28;22587;-76
2023/11/06 03:47:14;;;;;;;6.13;3.25;;;8.10;99.90;;;;;;4993169;28;20046;-76
2023/11/06 03:49:45;;;;;;;7.68;3.55;;;8.00;99.90;;;;;;4995535;28;20111;-76
2023/11/06 03:52:13;;;;;;;5.90;2.80;;;8.00;99.90;;;;;;5005993;28;20071;-76
2023/11/06 03:54:42;;;;;;;4.70;2.25;;;8.10;99.90;;;;;;4993435;28;20089;-76
2023/11/06 03:57:10;;;;;;;4.30;1.65;;;8.10;99.90;;;;;;5014965;28;20573;-76
2023/11/06 03:59:40;;;;;;;1.98;1.02;;;8.20;99.90;;;;;;4992369;28;20784;-76
2023/11/06 04:02:09;;;;;;;3.00;1.38;;;8.30;99.90;;;;;;5010423;28;20484;-76
2023/11/06 04:04:37;;;;;;;3.92;1.05;;;8.40;99.90;;;;;;5028619;28;20504;-76
2023/11/06 04:07:07;;;;;;;5.65;1.48;;;8.50;99.90;;;;;;4991899;28;20053;-76
2023/11/06 04:09:35;;;;;;;3.90;1.00;;;8.50;99.90;;;;;;5004303;28;20740;-76
2023/11/06 04:12:05;;;;;;;12.90;7.97;;;8.50;99.90;;;;;;5018785;28;20049;-76
2023/11/06 04:14:33;;;;;;;29.02;17.17;;;8.50;99.90;;;;;;4992620;28;20056;-76
2023/11/06 04:17:01;;;;;;;19.63;12.68;;;8.50;99.90;;;;;;4992236;28;20058;-76
2023/11/06 04:19:30;;;;;;;25.63;13.20;;;8.50;99.90;;;;;;5010133;28;20817;-75
2023/11/06 04:21:58;;;;;;;11.57;5.97;;;8.50;99.90;;;;;;5008722;28;20057;-77
2023/11/06 04:24:28;;;;;;;12.93;7.25;;;8.40;99.90;;;;;;5014579;28;20053;-77
2023/11/06 04:26:56;;;;;;;6.43;3.47;;;8.40;99.90;;;;;;4985876;28;22171;-77
2023/11/06 04:29:25;;;;;;;6.20;2.80;;;8.30;99.90;;;;;;4984741;28;20180;-77
2023/11/06 04:31:53;;;;;;;5.00;2.28;;;8.20;99.90;;;;;;5004400;28;20808;-77
2023/11/06 04:34:22;;;;;;;3.50;1.70;;;8.10;99.90;;;;;;4995706;28;20049;-77
2023/11/06 04:36:51;;;;;;;2.45;1.15;;;8.10;99.90;;;;;;4993681;28;20172;-77
2023/11/06 04:39:19;;;;;;;4.63;1.35;;;8.00;99.90;;;;;;4994990;28;22612;-77
2023/11/06 04:41:49;;;;;;;2.90;1.00;;;8.00;99.90;;;;;;4998384;28;20136;-77
2023/11/06 04:44:17;;;;;;;2.65;1.00;;;8.00;99.90;;;;;;5037572;28;20066;-77
2023/11/06 04:46:46;;;;;;;2.38;0.65;;;8.00;99.90;;;;;;4995071;28;20195;-77
2023/11/06 04:49:15;;;;;;;1.27;0.30;;;8.00;99.90;;;;;;4997763;28;22508;-78
2023/11/06 04:51:43;;;;;;;0.88;0.22;;;8.10;99.90;;;;;;5005946;28;20111;-77
2023/11/06 04:54:12;;;;;;;0.50;0.10;;;8.20;99.90;;;;;;4996299;28;20048;-76
2023/11/06 04:56:42;;;;;;;2.42;0.10;;;8.20;99.90;;;;;;5004585;28;20590;-78
2023/11/06 04:59:12;;;;;;;0.68;0.35;;;8.30;99.90;;;;;;5003090;28;20060;-77
2023/11/06 05:01:41;;;;;;;0.40;0.10;;;8.30;99.90;;;;;;4994447;28;20140;-78
2023/11/06 05:04:11;;;;;;;0.47;0.10;;;8.30;99.90;;;;;;4995690;28;20103;-77
2023/11/06 05:06:40;;;;;;;2.00;0.20;;;8.30;99.90;;;;;;5030467;28;20053;-77
2023/11/06 05:09:10;;;;;;;0.70;0.10;;;8.40;99.90;;;;;;4995405;28;20054;-77
2023/11/06 05:11:39;;;;;;;0.70;0.20;;;8.40;99.90;;;;;;5005101;28;20056;-78
2023/11/06 05:14:07;;;;;;;0.77;0.10;;;8.40;99.90;;;;;;4993233;28;20083;-77
2023/11/06 05:16:38;;;;;;;0.65;0.10;;;8.40;99.90;;;;;;5005245;28;20088;-77
2023/11/06 05:19:06;;;;;;;0.70;0.10;;;8.40;99.90;;;;;;5026147;28;20050;-78
2023/11/06 05:21:35;;;;;;;2.22;0.20;;;8.30;99.90;;;;;;4996169;28;20111;-78
2023/11/06 05:24:04;;;;;;;8.98;5.10;;;8.30;99.90;;;;;;4997694;28;20199;-77
2023/11/06 05:26:33;;;;;;;7.43;2.53;;;8.30;99.90;;;;;;5015679;28;20168;-77
2023/11/06 05:29:01;;;;;;;21.35;9.35;;;8.20;99.90;;;;;;4997157;28;20053;-76
2023/11/06 05:31:30;;;;;;;170.23;53.78;;;8.20;99.90;;;;;;5012747;28;20448;-78
2023/11/06 05:33:59;;;;;;;96.82;35.92;;;8.10;99.90;;;;;;5011098;28;20050;-75
2023/11/06 05:36:29;;;;;;;33.72;14.80;;;8.10;99.90;;;;;;5002538;28;20045;-75
2023/11/06 05:38:57;;;;;;;23.38;9.98;;;8.10;99.90;;;;;;5008683;28;20057;-75
2023/11/06 05:41:26;;;;;;;14.75;5.78;;;8.10;99.90;;;;;;5030542;28;20119;-76
2023/11/06 05:43:55;;;;;;;7.00;3.25;;;8.10;99.90;;;;;;4999984;28;22246;-75
2023/11/06 05:46:24;;;;;;;7.47;3.30;;;8.10;99.90;;;;;;5028681;28;20057;-75
2023/11/06 05:48:52;;;;;;;7.35;4.70;;;8.10;99.90;;;;;;4996357;28;20077;-76
2023/11/06 05:51:23;;;;;;;4.63;1.55;;;8.20;99.90;;;;;;4998278;28;20851;-75
2023/11/06 05:53:51;;;;;;;2.72;1.20;;;8.20;99.90;;;;;;4999495;28;20195;-76
2023/11/06 05:56:19;;;;;;;2.25;0.70;;;8.20;99.90;;;;;;4998852;28;20425;-76
2023/11/06 05:58:48;;;;;;;2.65;0.35;;;8.10;99.90;;;;;;5004630;28;20072;-76
2023/11/06 06:01:17;;;;;;;2.85;0.43;;;8.10;99.90;;;;;;5008040;28;20033;-76
2023/11/06 06:03:45;;;;;;;2.83;0.40;;;8.10;99.90;;;;;;5025215;28;20250;-76
2023/11/06 06:06:16;;;;;;;2.83;0.30;;;8.10;99.90;;;;;;5010629;28;20069;-76
2023/11/06 06:08:46;;;;;;;3.60;0.70;;;8.20;99.90;;;;;;5024552;28;20065;-76
2023/11/06 06:11:15;;;;;;;1.83;0.60;;;8.20;99.90;;;;;;4995468;28;20072;-76
2023/11/06 06:13:43;;;;;;;2.83;0.98;;;8.10;99.90;;;;;;4985682;28;20061;-76
2023/11/06 06:16:12;;;;;;;1.67;0.63;;;8.10;99.90;;;;;;4989093;28;20056;-76
2023/11/06 06:18:40;;;;;;;5.00;1.15;;;8.10;99.90;;;;;;5000936;28;20057;-77
2023/11/06 06:21:09;;;;;;;4.03;1.50;;;8.10;99.90;;;;;;4987907;28;20045;-76
2023/11/06 06:23:38;;;;;;;5.00;1.83;;;8.00;99.90;;;;;;5021324;28;20064;-76
2023/11/06 06:26:08;;;;;;;4.70;1.90;;;8.10;99.90;;;;;;5040749;28;20761;-76
2023/11/06 06:28:36;;;;;;;3.58;1.08;;;8.10;99.90;;;;;;4993091;28;20057;-76
2023/11/06 06:31:05;;;;;;;3.10;0.50;;;8.20;99.90;;;;;;4984516;28;20095;-76
2023/11/06 06:33:33;;;;;;;2.22;0.90;;;8.20;99.90;;;;;;4990100;28;20053;-76
2023/11/06 06:36:02;;;;;;;3.70;0.88;;;8.30;99.90;;;;;;4981011;28;20053;-76
2023/11/06 06:38:30;;;;;;;2.00;0.30;;;8.40;99.90;;;;;;4998805;28;20535;-76
2023/11/06 06:40:59;;;;;;;1.38;0.57;;;8.50;99.90;;;;;;4981326;28;20049;-77
2023/11/06 06:43:29;;;;;;;2.63;0.20;;;8.50;99.90;;;;;;4981992;28;20525;-78
2023/11/06 06:45:58;;;;;;;2.50;0.40;;;8.50;99.90;;;;;;4992904;28;20053;-78
2023/11/06 06:48:26;;;;;;;1.38;0.30;;;8.60;99.90;;;;;;4987165;28;20625;-78
2023/11/06 06:50:55;;;;;;;1.92;0.30;;;8.60;99.90;;;;;;4990542;28;20045;-78
2023/11/06 06:53:23;;;;;;;3.00;0.30;;;8.60;99.90;;;;;;5002827;28;20777;-79
2023/11/06 06:55:52;;;;;;;1.50;0.22;;;8.50;99.90;;;;;;5000260;28;20107;-79
2023/11/06 06:58:21;;;;;;;1.48;0.40;;;8.60;99.90;;;;;;4975932;28;20594;-78
2023/11/06 07:00:51;;;;;;;2.30;0.68;;;8.60;99.90;;;;;;4975182;28;20084;-78
2023/11/06 07:03:20;;;;;;;3.53;0.70;;;8.60;99.90;;;;;;4975324;28;20050;-79
2023/11/06 07:05:48;;;;;;;8.48;1.85;;;8.50;99.90;;;;;;4982772;28;20046;-79
2023/11/06 07:08:17;;;;;;;2.83;1.25;;;8.50;99.90;;;;;;4993182;28;20049;-78
2023/11/06 07:10:46;;;;;;;9.13;6.72;;;8.50;99.90;;;;;;5027999;28;20049;-79
2023/11/06 07:13:14;;;;;;;4.90;3.05;;;8.50;99.90;;;;;;5015800;28;20160;-78
2023/11/06 07:15:43;;;;;;;13.75;7.85;;;8.40;99.90;;;;;;4996337;28;20056;-78
2023/11/06 07:18:13;;;;;;;7.18;3.95;;;8.40;99.90;;;;;;4987127;28;20053;-78
2023/11/06 07:20:41;;;;;;;11.10;6.40;;;8.60;99.90;;;;;;4997743;28;20664;-78
2023/11/06 07:23:10;;;;;;;5.88;2.20;;;8.70;99.90;;;;;;5004539;28;20081;-79
2023/11/06 07:25:38;;;;;;;7.25;1.40;;;8.90;99.90;;;;;;5000280;28;21992;-78
2023/11/06 07:28:07;;;;;;;6.05;1.52;;;9.10;99.90;;;;;;4981231;28;20171;-78
2023/11/06 07:30:35;;;;;;;7.05;1.80;;;9.20;99.90;;;;;;4997578;28;20194;-77
2023/11/06 07:33:04;;;;;;;5.95;1.75;;;9.40;99.90;;;;;;4980670;28;22181;-78
2023/11/06 07:35:35;;;;;;;2.95;1.42;;;9.50;99.90;;;;;;4982673;28;20045;-78
2023/11/06 07:38:03;;;;;;;4.60;1.60;;;9.40;99.90;;;;;;5004674;28;20187;-78
2023/11/06 07:40:32;;;;;;;5.22;2.70;;;9.50;99.90;;;;;;4999877;28;20056;-78
2023/11/06 07:43:00;;;;;;;5.82;2.58;;;9.60;99.90;;;;;;4999443;28;20119;-78
2023/11/06 07:45:29;;;;;;;5.65;2.25;;;9.80;99.90;;;;;;4998276;28;20064;-79
2023/11/06 07:48:01;;;;;;;5.53;1.80;;;10.00;99.90;;;;;;4978505;28;20159;-78
2023/11/06 07:50:32;;;;;;;4.35;1.98;;;9.90;99.90;;;;;;4990908;28;20049;-78
2023/11/06 07:53:02;;;;;;;3.25;1.52;;;9.80;99.90;;;;;;4977495;28;20176;-78
2023/11/06 07:55:31;;;;;;;5.20;2.13;;;9.70;99.90;;;;;;4994811;28;20182;-78
2023/11/06 07:58:00;;;;;;;3.97;1.33;;;9.60;99.90;;;;;;4979746;28;20859;-78
2023/11/06 08:00:29;;;;;;;3.55;1.05;;;9.60;99.90;;;;;;4979720;28;20052;-78
2023/11/06 08:03:14;;;;;;;5.85;1.40;;;9.60;99.90;;;;;;4990508;28;20045;-79
2023/11/06 08:05:42;;;;;;;8.05;5.03;;;9.90;99.90;;;;;;4990485;28;20199;-79
2023/11/06 08:08:12;;;;;;;8.90;4.28;;;10.20;99.90;;;;;;5006727;28;20057;-78
2023/11/06 08:10:41;;;;;;;5.60;2.55;;;10.50;99.90;;;;;;5008293;28;20449;-78
2023/11/06 08:13:10;;;;;;;5.30;1.55;;;10.70;99.90;;;;;;4997904;28;20057;-85
2023/11/06 08:15:38;;;;;;;3.75;1.15;;;10.50;99.90;;;;;;5008952;28;20248;-78
2023/11/06 08:18:06;;;;;;;2.92;1.33;;;10.50;99.90;;;;;;4992352;28;20084;-78
2023/11/06 08:20:36;;;;;;;5.55;2.05;;;10.60;99.90;;;;;;4994477;28;20060;-81
2023/11/06 08:23:05;;;;;;;5.90;2.47;;;10.70;99.90;;;;;;4999737;28;20447;-78
2023/11/06 08:25:35;;;;;;;7.45;3.40;;;10.80;99.90;;;;;;4994666;28;20740;-77
2023/11/06 08:28:04;;;;;;;9.50;2.00;;;11.00;99.90;;;;;;4990842;28;20064;-77
2023/11/06 08:30:33;;;;;;;3.65;1.23;;;10.80;99.90;;;;;;5026751;28;20079;-78
2023/11/06 08:33:01;;;;;;;3.70;1.15;;;10.70;99.90;;;;;;5016622;28;20048;-78
2023/11/06 08:35:30;;;;;;;4.28;1.00;;;10.70;99.90;;;;;;4993551;28;20185;-78
2023/11/06 08:38:00;;;;;;;1.50;0.70;;;10.80;99.90;;;;;;5005698;28;20084;-78
2023/11/06 08:40:29;;;;;;;3.13;0.93;;;10.90;99.90;;;;;;4992947;28;20113;-79
2023/11/06 08:42:59;;;;;;;2.35;0.65;;;11.10;99.90;;;;;;5006403;28;20042;-78
2023/11/06 08:45:28;;;;;;;3.08;0.60;;;11.20;99.90;;;;;;5024669;28;20053;-78
2023/11/06 08:47:56;;;;;;;2.40;0.80;;;11.30;99.90;;;;;;4997193;28;20053;-78
2023/11/06 08:50:29;;;;;;;2.72;0.80;;;11.40;99.90;;;;;;5007536;28;20093;-79
2023/11/06 08:52:57;;;;;;;2.45;0.80;;;11.50;99.90;;;;;;4996808;28;20128;-79
2023/11/06 08:55:26;;;;;;;3.05;0.47;;;11.50;99.90;;;;;;4998911;28;20045;-78
2023/11/06 08:57:54;;;;;;;3.45;0.68;;;11.60;99.90;;;;;;5016271;28;20416;-78
2023/11/06 09:00:27;;;;;;;4.55;0.73;;;11.70;99.90;;;;;;5014568;28;20057;-78
2023/11/06 09:02:55;;;;;;;;;;;11.80;99.90;;;;;;5030982;28;20524;-78
2023/11/06 09:05:24;;;;;;;2.97;0.70;;;11.80;99.90;;;;;;4997066;28;19929;-78
2023/11/06 09:07:53;;;;;;;3.40;1.13;;;11.90;99.90;;;;;;4994164;28;20073;-78
2023/11/06 09:10:22;;;;;;;2.72;0.80;;;12.00;99.90;;;;;;4984924;28;20190;-77
2023/11/06 09:12:50;;;;;;;5.30;1.08;;;12.00;99.90;;;;;;4974333;28;20037;-78
2023/11/06 09:15:19;;;;;;;5.40;0.65;;;12.20;99.90;;;;;;4998654;28;20114;-77
2023/11/06 09:17:49;;;;;;;3.10;0.70;;;12.10;99.90;;;;;;5007634;28;20053;-77
2023/11/06 09:20:17;;;;;;;5.82;1.25;;;12.10;99.90;;;;;;4974780;28;20077;-77
2023/11/06 09:22:46;;;;;;;2.97;0.60;;;12.30;99.90;;;;;;4975714;28;20096;-77
2023/11/06 09:25:15;;;;;;;1.65;0.50;;;12.20;99.90;;;;;;5003987;28;20052;-77
2023/11/06 09:27:44;;;;;;;4.43;0.50;;;12.20;99.90;;;;;;4985779;28;22426;-76
2023/11/06 09:30:13;;;;;;;3.92;0.60;;;12.10;99.90;;;;;;4979422;28;20049;-77
2023/11/06 09:32:42;;;;;;;114.93;107.88;;;12.10;99.90;;;;;;5008792;28;20049;-77
2023/11/06 09:35:12;;;;;;;1.95;0.68;;;12.30;99.90;;;;;;4993814;28;20176;-76
2023/11/06 09:37:41;;;;;;;1.70;0.50;;;12.60;99.90;;;;;;4992052;28;20052;-77
2023/11/06 09:40:19;;;;;;;5.05;1.27;;;12.50;99.90;;;;;;4978908;28;20050;-77
2023/11/06 09:42:48;;;;;;;4.97;0.90;;;12.60;99.90;;;;;;4995470;28;20107;-77
2023/11/06 09:45:17;;;;;;;2.17;0.68;;;12.60;99.90;;;;;;5021707;28;20677;-78
2023/11/06 09:47:50;;;;;;;1.55;0.60;;;12.70;99.90;;;;;;4977542;28;20053;-77
2023/11/06 09:50:23;;;;;;;1.85;0.90;;;12.90;99.90;;;;;;4983747;28;20060;-77
2023/11/06 09:52:53;;;;;;;2.92;0.40;;;12.90;99.90;;;;;;4982666;28;20049;-77
2023/11/06 09:55:23;;;;;;;3.13;0.50;;;12.80;99.90;;;;;;5004875;28;22156;-77
2023/11/06 09:57:52;;;;;;;3.33;0.40;;;12.70;99.90;;;;;;5009488;28;20038;-77
2023/11/06 10:00:22;;;;;;;2.20;0.55;;;12.50;99.90;;;;;;4979532;28;20049;-77
2023/11/06 10:02:52;;;;;;;1.77;0.60;;;12.80;99.90;;;;;;5010129;28;20778;-78
2023/11/06 10:05:22;;;;;;;2.45;0.47;;;13.00;99.90;;;;;;4982247;28;22561;-77
2023/11/06 10:07:52;;;;;;;3.25;0.32;;;13.00;99.90;;;;;;4996805;28;20587;-77
2023/11/06 10:10:22;;;;;;;3.42;0.50;;;12.80;99.90;;;;;;4999857;28;20057;-77
2023/11/06 10:13:12;;;;;;;2.35;0.40;;;12.80;99.90;;;;;;4983682;28;20072;-77
2023/11/06 10:15:40;;;;;;;1.90;0.45;;;13.10;99.90;;;;;;5002348;28;20060;-78
2023/11/06 10:18:13;;;;;;;2.20;0.30;;;13.40;99.90;;;;;;4994161;28;20050;-77
2023/11/06 10:20:46;;;;;;;0.85;0.20;;;13.70;99.90;;;;;;5015578;28;20063;-78
2023/11/06 10:23:23;;;;;;;4.60;0.40;;;13.70;99.90;;;;;;4975607;28;20836;-78
2023/11/06 10:25:53;;;;;;;2.42;0.38;;;13.70;99.90;;;;;;5013873;28;20061;-77
2023/11/06 10:28:22;;;;;;;2.20;0.30;;;13.70;99.90;;;;;;4983562;28;20069;-76
2023/11/06 10:30:53;;;;;;;2.72;0.32;;;13.70;99.90;;;;;;4980841;28;20046;-78
2023/11/06 10:33:23;;;;;;;1.77;0.30;;;13.60;99.90;;;;;;4998630;28;20069;-79
2023/11/06 10:35:54;;;;;;;1.75;0.10;;;13.30;99.90;;;;;;4981947;28;20690;-78
2023/11/06 10:38:28;;;;;;;1.17;0.20;;;13.30;99.90;;;;;;4985192;28;20065;-79
2023/11/06 10:40:57;;;;;;;2.33;0.43;;;13.30;99.90;;;;;;4980989;28;20631;-81
2023/11/06 10:43:26;;;;;;;3.40;0.20;;;13.30;99.90;;;;;;4998016;28;21133;-82
2023/11/06 10:45:56;;;;;;;3.00;0.30;;;13.40;99.90;;;;;;4977645;28;20147;-83
2023/11/06 10:48:34;;;;;;;5.60;0.30;;;13.60;99.90;;;;;;4989867;28;20049;-84
2023/11/06 10:51:10;;;;;;;0.40;0.10;;;13.90;99.90;;;;;;4997856;28;20087;-84
2023/11/06 10:53:39;;;;;;;2.28;0.70;;;13.90;99.90;;;;;;5013782;28;22286;-84
2023/11/06 10:56:10;;;;;;;1.67;0.30;;;14.10;99.90;;;;;;4981447;28;20057;-83
2023/11/06 10:58:40;;;;;;;2.20;0.30;;;14.10;99.90;;;;;;4982245;28;20108;-79
2023/11/06 11:01:09;;;;;;;1.88;0.20;;;14.10;99.90;;;;;;5010401;28;20057;-82
2023/11/06 11:03:40;;;;;;;2.60;0.20;;;14.10;99.90;;;;;;4978293;28;20258;-81
2023/11/06 11:06:11;;;;;;;2.85;0.30;;;14.10;99.90;;;;;;4981380;28;20080;-77
2023/11/06 11:08:41;;;;;;;3.50;0.20;;;14.10;99.90;;;;;;5010042;28;20072;-77
2023/11/06 11:11:10;;;;;;;4.80;0.65;;;14.20;99.90;;;;;;4984630;28;20046;-76
2023/11/06 11:13:43;;;;;;;4.65;0.17;;;14.30;99.90;;;;;;4990104;28;20194;-78
2023/11/06 11:16:31;;;;;;;;;;;14.50;99.90;;;;;;4978361;28;20057;-77
2023/11/06 11:18:59;;;;;;;0.65;0.25;;;14.70;99.40;;;;;;4975464;28;20645;-76
2023/11/06 11:21:58;;;;;;;4.78;0.50;;;14.90;98.40;;;;;;4980216;28;22628;-79
2023/11/06 11:24:50;;;;;;;6.10;0.98;;;14.80;99.50;;;;;;4977983;28;20186;-78
2023/11/06 11:27:21;;;;;;;3.65;0.98;;;15.10;98.00;;;;;;4977398;28;20096;-76
2023/11/06 11:30:12;;;;;;;2.17;0.38;;;15.40;96.20;;;;;;4992011;28;20057;-77
2023/11/06 11:32:49;;;;;;;1.77;0.38;;;15.20;93.70;;;;;;4978316;28;20124;-77
2023/11/06 11:36:01;;;;;;;1.67;0.38;;;15.10;91.80;;;;;;4993331;28;20053;-77
2023/11/06 11:38:35;;;;;;;2.40;0.30;;;15.20;92.40;;;;;;4977172;28;20428;-76
2023/11/06 11:41:15;;;;;;;0.55;0.20;;;15.30;91.60;;;;;;4978754;28;20769;-77
2023/11/06 11:43:46;;;;;;;1.35;0.10;;;15.40;90.30;;;;;;4978486;28;20049;-80
2023/11/06 11:46:57;;;;;;;0.50;0.10;;;15.30;92.20;;;;;;4981527;28;20840;-82
2023/11/06 11:49:39;;;;;;;0.60;0.05;;;15.10;92.30;;;;;;4977814;28;20064;-81
2023/11/06 11:52:09;;;;;;;3.00;0.40;;;15.00;92.40;;;;;;4991507;28;20061;-83
2023/11/06 11:54:39;;;;;;;2.10;0.13;;;14.90;91.40;;;;;;5020289;28;20199;-84
2023/11/06 11:57:10;;;;;;;1.92;0.10;;;15.00;92.00;;;;;;4978930;28;20084;-82
2023/11/06 11:59:40;;;;;;;3.25;0.20;;;14.70;91.40;;;;;;4984255;28;20496;-87
2023/11/06 12:02:26;;;;;;;2.20;0.38;;;14.60;93.10;;;;;;5009643;28;20049;-83
2023/11/06 12:04:59;;;;;;;0.43;0.10;;;14.70;92.00;;;;;;4991910;28;20049;-83
2023/11/06 12:07:31;;;;;;;1.30;0.20;;;14.50;91.70;;;;;;5005145;28;20045;-86
2023/11/06 12:10:01;;;;;;;1.63;0.10;;;14.30;92.60;;;;;;4986691;28;20203;-83
2023/11/06 12:12:32;;;;;;;2.33;0.40;;;14.10;92.70;;;;;;4979469;28;20730;-82
2023/11/06 12:15:02;;;;;;;0.93;0.20;;;14.10;92.50;;;;;;4980710;28;20049;-84
2023/11/06 12:17:33;;;;;;;1.70;0.10;;;14.10;93.30;;;;;;4990460;28;20045;-84
2023/11/06 12:20:09;;;;;;;1.45;0.10;;;14.20;93.70;;;;;;5002871;28;20065;-82
2023/11/06 12:22:49;;;;;;;1.05;0.25;;;14.30;92.30;;;;;;4978153;28;20148;-83
2023/11/06 12:25:27;;;;;;;0.95;0.10;;;14.40;91.80;;;;;;4979056;28;20702;-83
2023/11/06 12:28:03;;;;;;;1.60;0.00;;;14.50;90.30;;;;;;4979017;28;20132;-82
2023/11/06 12:30:32;;;;;;;2.40;0.20;;;14.50;89.30;;;;;;5012663;28;20053;-84
2023/11/06 12:33:11;;;;;;;0.47;0.10;;;14.40;89.00;;;;;;4996070;28;20049;-84
2023/11/06 12:35:40;;;;;;;0.50;0.10;;;14.40;90.10;;;;;;5008735;28;20045;-87
2023/11/06 12:38:09;;;;;;;1.05;0.10;;;14.50;90.80;;;;;;5016133;28;20052;-85
2023/11/06 12:40:43;;;;;;;1.75;0.15;;;14.50;92.60;;;;;;4998920;28;20061;-83
2023/11/06 12:43:15;;;;;;;1.77;0.20;;;14.80;94.20;;;;;;5015636;28;20527;-82
2023/11/06 12:45:44;;;;;;;;;;;14.80;93.70;;;;;;5024058;28;20049;-82
2023/11/06 12:48:23;;;;;;;2.50;0.10;;;14.60;93.90;;;;;;5010121;28;19929;-82
2023/11/06 12:50:59;;;;;;;1.15;0.10;;;14.50;94.50;;;;;;5023788;28;20053;-80
2023/11/06 12:53:28;;;;;;;2.60;0.10;;;14.60;94.10;;;;;;5006183;28;20550;-80
2023/11/06 12:55:57;;;;;;;1.13;0.10;;;14.60;94.00;;;;;;5013478;28;20041;-79
2023/11/06 12:58:28;;;;;;;0.25;0.00;;;14.50;95.30;;;;;;5014210;28;20059;-81
2023/11/06 13:01:00;;;;;;;1.67;0.10;;;14.40;94.00;;;;;;5028567;28;20804;-84
2023/11/06 13:03:30;;;;;;;;;;;14.40;93.60;;;;;;5031515;28;20056;-81